Smyrna, Delaware
Current Conditions -  °F | °C
As of 3:58 AM on Sunday 23 Nov 2014 (Local Time) from KDOV Reporting Station
Clear Clear  
Wind Chill: 33°   Ceiling: Unl
Heat Index: 39°   Visibility: 10mi
Dew Point: 23°   Wind: 8mph
Humidity: 52%   Direction: 180°S
Pressure: 30.19"   Gusts: NA
Location:  39.3°N, 75.61°W
Report Text: KDOV 230858Z AUTO 18007KT 10SM CLR 04/M05 A3019 RMK AO2 SLP227 T00391051 57014
Loading
Personal Weather Stations






























Interactive Weather Map New forecast layout! Learn more

10-Day Weather Forecast

Advertisements
Track Severe Weather on mobile